Time;durP1;ratioP1;P1;durP2;ratioP2;P2;SDS_P1;SDS_P2;PMS_P1;PMS_P2;Temp;Humidity;BMP_temperature;BMP_pressure;BME280_temperature;BME280_humidity;BME280_pressure;Samples;Min_cycle;Max_cycle;Signal;HPM_P1;HPM_P2
2022/06/09 00:01:27;;;;;;;1.90;1.60;;;;;;;16.27;100.00;95785.53;5024284;28;20057;-50
2022/06/09 00:04:00;;;;;;;3.72;1.75;;;;;;;16.51;100.00;95789.56;5024687;28;20081;-43
2022/06/09 00:06:32;;;;;;;1.60;1.50;;;;;;;16.36;100.00;95781.72;5020763;28;20390;-51
2022/06/09 00:09:02;;;;;;;3.00;1.60;;;;;;;16.22;100.00;95788.00;5026556;28;20069;-48
2022/06/09 00:11:30;;;;;;;2.65;1.60;;;;;;;16.25;100.00;95790.25;5025246;28;20130;-45
2022/06/09 00:14:00;;;;;;;3.72;1.70;;;;;;;16.23;100.00;95785.13;5025886;28;20061;-48
2022/06/09 00:16:29;;;;;;;3.83;1.60;;;;;;;16.21;100.00;95781.84;5024821;28;20072;-52
2022/06/09 00:18:57;;;;;;;3.05;1.67;;;;;;;16.33;100.00;95782.09;5022677;28;20079;-47
2022/06/09 00:21:26;;;;;;;2.75;1.30;;;;;;;16.34;100.00;95778.41;5025130;28;20066;-46
2022/06/09 00:23:54;;;;;;;3.15;1.60;;;;;;;16.24;100.00;95780.63;5025387;28;20072;-50
2022/06/09 00:26:23;;;;;;;1.73;1.35;;;;;;;-146.19;100.00;95780.63;5025759;28;20561;-45
2022/06/09 00:28:51;;;;;;;2.97;1.60;;;;;;;16.24;100.00;95780.63;5023354;28;20061;-49
2022/06/09 00:31:21;;;;;;;2.28;1.48;;;;;;;16.56;100.00;95779.16;5025504;28;20088;-46
2022/06/09 00:33:50;;;;;;;1.50;1.40;;;;;;;16.56;100.00;95779.16;5022899;28;20065;-45
2022/06/09 00:36:18;;;;;;;2.72;1.40;;;;;;;16.56;100.00;95779.16;5027589;28;20057;-47
2022/06/09 00:38:47;;;;;;;2.45;1.40;;;;;;;16.56;0.00;95779.16;5023083;28;20061;-50
2022/06/09 00:41:15;;;;;;;2.55;1.50;;;;;;;16.32;100.00;95778.63;5026295;28;20524;-50
2022/06/09 00:43:45;;;;;;;1.60;1.50;;;;;;;16.55;100.00;95778.34;5023628;28;20061;-54
2022/06/09 00:46:17;;;;;;;2.65;1.52;;;;;;;16.53;100.00;95775.03;5027588;28;20087;-45
2022/06/09 00:48:50;;;;;;;3.70;1.45;;;;;;;16.53;100.00;95775.03;5023723;28;20076;-51
2022/06/09 00:51:25;;;;;;;1.75;1.50;;;;;;;188.59;100.00;95776.50;5025159;28;20104;-47
2022/06/09 00:53:57;;;;;;;2.85;1.63;;;;;;;16.56;100.00;95866.44;5025138;28;20464;-50
2022/06/09 00:56:25;;;;;;;3.33;1.52;;;;;;;188.59;100.00;95776.50;5021565;28;20066;-50
2022/06/09 00:58:54;;;;;;;2.17;1.60;;;;;;;16.56;100.00;-22603.78;5024548;28;20073;-49
2022/06/09 01:01:25;;;;;;;2.53;1.40;;;;;;;-146.19;100.00;95782.63;5025331;28;20520;-50
2022/06/09 01:03:58;;;;;;;7.15;1.98;;;;;;;-146.19;100.00;95782.63;5023779;28;20092;-52
2022/06/09 01:06:30;;;;;;;4.07;1.48;;;;;;;188.59;100.00;58918.88;5026538;28;20061;-44
2022/06/09 01:09:02;;;;;;;2.08;1.70;;;;;;;16.32;100.00;72111.09;5024454;28;20072;-57
2022/06/09 01:11:30;;;;;;;3.30;1.55;;;;;;;16.32;100.00;101358.22;5023314;28;20468;-50
2022/06/09 01:13:59;;;;;;;2.17;1.70;;;;;;;16.68;100.00;95790.84;5027530;28;20080;-53
2022/06/09 01:16:38;;;;;;;2.08;1.73;;;;;;;16.64;100.00;95789.63;5026629;28;20088;-50
2022/06/09 01:19:21;;;;;;;2.20;1.50;;;;;;;16.55;100.00;95785.47;5024148;28;21187;-51
2022/06/09 01:22:14;;;;;;;3.05;1.90;;;;;;;16.53;100.00;95784.88;5024768;28;20077;-52
2022/06/09 01:25:00;;;;;;;3.40;1.73;;;;;;;16.63;100.00;95785.31;5023700;28;20488;-44
2022/06/09 01:27:41;;;;;;;2.00;1.75;;;;;;;16.63;100.00;95785.31;5027564;28;20627;-46
2022/06/09 01:30:13;;;;;;;2.72;1.92;;;;;;;16.63;100.00;95785.31;5024948;28;20073;-48
2022/06/09 01:32:45;;;;;;;4.30;2.10;;;;;;;16.63;100.00;95785.31;5024913;28;20065;-45
2022/06/09 01:35:19;;;;;;;2.47;2.25;;;;;;;16.63;100.00;95785.31;5026203;28;20065;-45
2022/06/09 01:37:49;;;;;;;2.10;1.85;;;;;;;-146.19;100.00;95785.31;5021656;28;20066;-55
2022/06/09 01:40:19;;;;;;;2.67;1.95;;;;;;;16.63;100.00;123601.53;5024747;28;20528;-45
2022/06/09 01:42:49;;;;;;;2.05;1.83;;;;;;;16.30;100.00;95799.28;5026574;28;20049;-47
2022/06/09 01:45:19;;;;;;;2.80;1.95;;;;;;;16.37;100.00;95796.66;5025099;28;20075;-48
2022/06/09 01:47:53;;;;;;;4.13;2.00;;;;;;;16.37;100.00;95796.66;5021712;28;20057;-45
2022/06/09 01:50:28;;;;;;;2.72;1.83;;;;;;;16.37;100.00;95796.66;5021172;28;20463;-46
2022/06/09 01:52:59;;;;;;;2.80;2.25;;;;;;;16.37;100.00;95796.66;5022734;28;20052;-49
2022/06/09 01:55:29;;;;;;;2.40;2.13;;;;;;;-146.19;100.00;58918.88;5023526;28;20061;-45
2022/06/09 01:57:59;;;;;;;5.32;2.47;;;;;;;16.37;100.00;95796.66;5025980;28;20080;-46
2022/06/09 02:00:28;;;;;;;3.90;2.20;;;;;;;16.24;100.00;95788.59;5018267;28;20308;-50
2022/06/09 02:03:04;;;;;;;3.38;2.20;;;;;;;16.24;100.00;78294.47;5021765;28;20045;-48
2022/06/09 02:05:37;;;;;;;4.28;2.03;;;;;;;16.11;100.00;95795.50;5022381;28;20476;-52
2022/06/09 02:08:08;;;;;;;2.92;1.98;;;;;;;16.11;100.00;95795.50;5024393;28;20068;-50
2022/06/09 02:10:37;;;;;;;;;;;;;;;16.26;100.00;95794.56;5023264;28;20554;-46
2022/06/09 02:13:08;;;;;;;3.03;2.00;;;;;;;16.35;100.00;95788.88;5021117;28;19952;-44
2022/06/09 02:15:40;;;;;;;3.70;2.20;;;;;;;16.08;100.00;95792.41;5024999;28;20569;-46
2022/06/09 02:18:12;;;;;;;3.78;2.00;;;;;;;16.33;100.00;95792.75;5019927;28;20073;-51
2022/06/09 02:20:43;;;;;;;5.43;2.38;;;;;;;16.33;100.00;95792.75;5022575;28;20092;-46
2022/06/09 02:23:13;;;;;;;4.85;2.13;;;;;;;16.35;100.00;95794.19;5023395;28;20064;-46
2022/06/09 02:25:41;;;;;;;4.93;2.30;;;;;;;16.35;100.00;95794.19;5023481;28;20057;-52
2022/06/09 02:28:10;;;;;;;3.67;2.03;;;;;;;16.35;100.00;77658.44;5023562;28;20081;-45
2022/06/09 02:30:39;;;;;;;2.83;2.25;;;;;;;16.35;100.00;95794.19;5022390;28;20081;-47
2022/06/09 02:33:19;;;;;;;5.00;2.00;;;;;;;16.35;100.00;95794.19;5020927;28;20640;-46
2022/06/09 02:35:47;;;;;;;;;;;;;;;16.35;100.00;95794.19;5026542;28;20061;-50
2022/06/09 02:38:16;;;;;;;4.55;1.80;;;;;;;16.35;100.00;95794.19;5024224;28;19945;-52
2022/06/09 02:40:44;;;;;;;2.95;1.70;;;;;;;-146.19;100.00;95794.19;5023630;28;20076;-47
2022/06/09 02:43:13;;;;;;;2.35;1.50;;;;;;;16.16;100.00;147200.44;5021273;28;20103;-47
2022/06/09 02:45:42;;;;;;;1.40;1.30;;;;;;;15.98;100.00;95802.56;5022410;28;20085;-51
2022/06/09 02:48:12;;;;;;;2.22;1.52;;;;;;;15.98;100.00;95802.56;5022074;28;20073;-50
2022/06/09 02:50:42;;;;;;;1.83;1.45;;;;;;;15.81;100.00;95800.19;5023541;28;20471;-49
2022/06/09 02:53:11;;;;;;;1.88;1.60;;;;;;;15.84;100.00;95799.81;5022390;28;20085;-47
2022/06/09 02:55:39;;;;;;;3.20;1.45;;;;;;;15.89;100.00;95804.53;5021920;28;20057;-50
2022/06/09 02:58:08;;;;;;;1.70;1.38;;;;;;;15.73;100.00;95800.34;5023780;28;20092;-47
2022/06/09 03:00:36;;;;;;;2.40;1.50;;;;;;;15.77;100.00;95804.25;5023512;28;20084;-46
2022/06/09 03:03:07;;;;;;;1.80;1.30;;;;;;;15.87;100.00;95801.28;5021398;28;20536;-49
2022/06/09 03:05:37;;;;;;;3.15;1.73;;;;;;;15.80;100.00;95795.91;5018750;28;20064;-46
2022/06/09 03:08:08;;;;;;;1.83;1.63;;;;;;;15.66;100.00;95804.81;5021608;28;20066;-47
2022/06/09 03:10:37;;;;;;;1.48;1.38;;;;;;;15.66;100.00;95804.81;5022521;28;20061;-44
2022/06/09 03:13:06;;;;;;;1.48;1.38;;;;;;;15.66;100.00;123825.78;5026697;28;20531;-49
2022/06/09 03:15:36;;;;;;;2.65;1.60;;;;;;;-146.19;100.00;78218.25;5023190;28;20141;-47
2022/06/09 03:18:05;;;;;;;3.72;1.80;;;;;;;15.66;100.00;101358.22;5026752;28;20072;-46
2022/06/09 03:20:34;;;;;;;1.80;1.58;;;;;;;15.87;100.00;95814.56;5022075;28;20524;-47
2022/06/09 03:23:03;;;;;;;1.90;1.40;;;;;;;-146.19;100.00;100535.38;5023738;28;20515;-47
2022/06/09 03:25:33;;;;;;;4.13;1.60;;;;;;;15.87;100.00;95814.56;5026016;28;20524;-46
2022/06/09 03:28:02;;;;;;;3.08;1.70;;;;;;;16.08;100.00;95821.66;5025517;28;20078;-44
2022/06/09 03:30:32;;;;;;;3.65;1.70;;;;;;;188.59;100.00;95821.66;5024846;28;20081;-44
2022/06/09 03:33:01;;;;;;;2.30;1.60;;;;;;;-139.66;100.00;58918.88;5024935;28;20073;-49
2022/06/09 03:35:31;;;;;;;2.37;1.80;;;;;;;16.12;100.00;95831.72;5023932;28;20656;-47
2022/06/09 03:38:00;;;;;;;2.25;1.70;;;;;;;16.08;100.00;95829.66;5025321;28;20070;-48
2022/06/09 03:40:29;;;;;;;3.88;1.67;;;;;;;16.08;100.00;95829.66;5025535;28;20550;-46
2022/06/09 03:43:02;;;;;;;3.38;1.65;;;;;;;16.08;100.00;95829.66;5031158;28;20085;-48
2022/06/09 03:45:32;;;;;;;1.77;1.50;;;;;;;16.23;100.00;95830.34;5026397;28;20092;-49
2022/06/09 03:48:00;;;;;;;3.10;1.70;;;;;;;16.21;100.00;95834.22;5024971;28;20061;-51
2022/06/09 03:50:31;;;;;;;3.42;1.90;;;;;;;16.34;100.00;95823.66;5025868;28;20069;-49
2022/06/09 03:53:00;;;;;;;2.70;2.00;;;;;;;16.31;100.00;95829.38;5027665;28;20171;-48
2022/06/09 03:55:28;;;;;;;3.08;1.77;;;;;;;16.24;100.00;95834.66;5025882;28;20087;-52
2022/06/09 03:57:58;;;;;;;2.42;1.58;;;;;;;16.32;100.00;95841.66;5026612;28;20139;-50
2022/06/09 04:00:29;;;;;;;3.83;1.90;;;;;;;16.32;100.00;95841.66;5023193;28;20456;-46
2022/06/09 04:02:57;;;;;;;;;;;;;;;16.18;100.00;95845.28;5024392;28;20069;-45
2022/06/09 04:05:26;;;;;;;2.63;1.80;;;;;;;16.25;100.00;95844.28;5021813;28;19963;-46
2022/06/09 04:07:55;;;;;;;5.10;2.03;;;;;;;16.25;100.00;95844.28;5026069;28;20084;-54
2022/06/09 04:10:28;;;;;;;3.08;1.80;;;;;;;16.25;100.00;95844.28;5024690;28;20061;-46
2022/06/09 04:12:59;;;;;;;2.97;1.75;;;;;;;16.06;100.00;95842.31;5021698;28;20092;-49
2022/06/09 04:15:28;;;;;;;2.75;1.88;;;;;;;15.81;100.00;95845.41;5026365;28;20439;-51
2022/06/09 04:17:56;;;;;;;2.85;1.95;;;;;;;16.05;100.00;95846.81;5025128;28;20065;-53
2022/06/09 04:20:27;;;;;;;2.10;1.90;;;;;;;16.07;100.00;95851.91;5023636;28;20075;-45
2022/06/09 04:22:55;;;;;;;3.00;1.98;;;;;;;15.88;100.00;95856.91;5027482;28;20076;-50
2022/06/09 04:25:24;;;;;;;3.70;2.08;;;;;;;16.17;100.00;95854.25;5026594;28;20072;-48
2022/06/09 04:27:52;;;;;;;4.68;1.88;;;;;;;16.18;100.00;95864.72;5021261;28;20050;-46
2022/06/09 04:30:23;;;;;;;1.85;1.70;;;;;;;15.89;100.00;95860.38;5024971;28;20072;-50
2022/06/09 04:32:54;;;;;;;2.75;2.00;;;;;;;16.00;100.00;95864.34;5023972;28;20079;-49
2022/06/09 04:35:23;;;;;;;4.38;1.95;;;;;;;16.11;100.00;95861.19;5024849;28;20064;-50
2022/06/09 04:38:01;;;;;;;3.50;1.88;;;;;;;15.94;100.00;95865.97;5025428;28;20310;-51
2022/06/09 04:40:33;;;;;;;2.67;1.90;;;;;;;16.12;100.00;95873.44;5026367;28;20420;-50
2022/06/09 04:43:02;;;;;;;2.40;1.88;;;;;;;16.06;100.00;95874.22;5026618;28;20084;-51
2022/06/09 04:45:33;;;;;;;3.30;1.88;;;;;;;16.15;100.00;95870.41;5025121;28;20094;-48
2022/06/09 04:48:02;;;;;;;2.97;1.90;;;;;;;16.16;100.00;95873.88;5024630;28;20072;-50
2022/06/09 04:50:31;;;;;;;2.63;1.75;;;;;;;16.17;100.00;95876.34;5025247;28;20069;-50
2022/06/09 04:52:59;;;;;;;2.35;2.00;;;;;;;15.87;100.00;95878.38;5023642;28;20154;-52
2022/06/09 04:55:28;;;;;;;4.75;2.00;;;;;;;16.01;100.00;95890.75;5023271;28;20456;-48
2022/06/09 04:57:58;;;;;;;3.20;1.70;;;;;;;16.31;100.00;95894.06;5024744;28;20092;-50
2022/06/09 05:00:27;;;;;;;2.15;1.90;;;;;;;16.28;100.00;95889.13;5022643;28;20625;-48
2022/06/09 05:02:59;;;;;;;2.78;2.00;;;;;;;16.48;100.00;95897.25;5024884;28;20542;-49
2022/06/09 05:05:29;;;;;;;2.53;1.90;;;;;;;16.44;100.00;95892.50;5019354;28;20076;-48
2022/06/09 05:07:58;;;;;;;2.63;1.80;;;;;;;16.64;100.00;95893.44;5021707;28;20065;-52
2022/06/09 05:10:27;;;;;;;2.70;1.90;;;;;;;16.75;100.00;95900.06;5020244;28;20451;-46
2022/06/09 05:12:57;;;;;;;2.50;2.00;;;;;;;16.67;100.00;95894.91;5024339;28;20089;-48
2022/06/09 05:15:25;;;;;;;2.20;2.00;;;;;;;16.67;100.00;95894.91;5016437;28;20095;-47
2022/06/09 05:17:57;;;;;;;1.92;1.77;;;;;;;16.67;100.00;95901.03;5027287;28;20065;-46
2022/06/09 05:20:28;;;;;;;5.32;1.80;;;;;;;16.67;100.00;95901.03;5024895;28;20073;-50
2022/06/09 05:22:56;;;;;;;2.03;1.83;;;;;;;16.76;100.00;95897.22;5026028;28;20068;-46
2022/06/09 05:25:25;;;;;;;2.58;2.00;;;;;;;16.98;100.00;95902.44;5022314;28;20123;-50
2022/06/09 05:27:54;;;;;;;3.47;1.98;;;;;;;16.67;100.00;95908.22;5025628;28;20116;-53
2022/06/09 05:30:25;;;;;;;2.40;2.00;;;;;;;16.76;100.00;95912.41;5022620;28;20069;-47
2022/06/09 05:32:53;;;;;;;3.90;1.70;;;;;;;16.76;100.00;95915.88;5023219;28;20076;-48
2022/06/09 05:35:22;;;;;;;2.30;1.92;;;;;;;17.07;100.00;95909.25;5017857;28;20064;-48
2022/06/09 05:46:15;;;;;;;4.45;1.95;;;;;;;17.38;100.00;95905.25;5025034;28;20548;-47
2022/06/09 05:48:44;;;;;;;2.15;1.90;;;;;;;17.40;100.00;95909.38;5024544;28;20081;-47
2022/06/09 05:51:15;;;;;;;3.47;1.67;;;;;;;17.47;100.00;95914.72;5024969;28;20080;-55
2022/06/09 05:53:45;;;;;;;2.85;1.70;;;;;;;17.76;100.00;95916.25;5019455;28;20453;-46
2022/06/09 05:56:14;;;;;;;2.53;2.00;;;;;;;17.47;100.00;95915.53;5024901;28;20084;-48
2022/06/09 05:58:43;;;;;;;3.85;2.20;;;;;;;17.53;100.00;95913.91;5025016;28;20084;-50
2022/06/09 06:01:13;;;;;;;2.10;1.90;;;;;;;17.68;100.00;95917.22;5022944;28;20098;-50
2022/06/09 06:03:42;;;;;;;2.08;1.88;;;;;;;17.51;100.00;95915.94;5024886;28;20088;-50
2022/06/09 06:08:58;;;;;;;2.20;2.00;;;;;;;17.57;100.00;95925.81;5020551;28;20141;-49
2022/06/09 06:11:26;;;;;;;3.25;1.70;;;;;;;17.61;100.00;95931.56;5021602;28;20061;-51
2022/06/09 06:13:55;;;;;;;3.92;1.73;;;;;;;17.55;100.00;95935.88;5021516;28;20069;-47
2022/06/09 06:16:24;;;;;;;1.70;1.60;;;;;;;17.32;100.00;95939.69;5021097;28;20069;-50
2022/06/09 06:19:03;;;;;;;1.73;1.48;;;;;;;17.32;100.00;95939.69;5023576;28;20077;-49
2022/06/09 06:21:32;;;;;;;3.58;1.60;;;;;;;17.32;100.00;95936.22;5020489;28;20062;-44
2022/06/09 06:24:03;;;;;;;2.42;1.52;;;;;;;17.40;100.00;95938.69;5009143;28;20598;-53
2022/06/09 06:26:33;;;;;;;1.98;1.60;;;;;;;17.25;100.00;95938.84;5018608;28;20680;-50
2022/06/09 06:29:02;;;;;;;1.40;1.30;;;;;;;17.26;100.00;95934.34;5020627;28;20053;-52
2022/06/09 06:31:31;;;;;;;2.55;1.40;;;;;;;17.40;100.00;95936.00;5019141;28;20124;-48
2022/06/09 06:33:59;;;;;;;2.20;1.45;;;;;;;17.40;100.00;95944.00;5015369;28;20073;-55
2022/06/09 06:36:29;;;;;;;2.92;1.15;;;;;;;17.86;100.00;95953.19;5020846;28;20082;-48
2022/06/09 06:38:58;;;;;;;3.38;1.65;;;;;;;17.64;100.00;95942.66;5018816;28;20073;-53
2022/06/09 06:41:28;;;;;;;2.58;1.13;;;;;;;17.71;100.00;95951.47;5018383;28;20070;-50
2022/06/09 06:43:57;;;;;;;2.15;1.30;;;;;;;17.76;100.00;95950.94;5020871;28;20081;-48
2022/06/09 06:46:26;;;;;;;1.98;1.45;;;;;;;18.09;100.00;95955.47;5022437;28;20168;-42
2022/06/09 06:48:55;;;;;;;2.67;1.10;;;;;;;18.13;100.00;95956.72;5025301;28;20531;-47
2022/06/09 06:51:24;;;;;;;1.33;1.10;;;;;;;17.85;100.00;95963.03;5024159;28;20072;-48
2022/06/09 06:53:53;;;;;;;2.20;1.30;;;;;;;17.97;100.00;95956.09;5023138;28;20136;-49
2022/06/09 06:56:21;;;;;;;3.97;1.38;;;;;;;18.07;100.00;95962.88;5023470;28;20069;-47
2022/06/09 06:58:51;;;;;;;1.58;1.13;;;;;;;17.61;100.00;95969.72;5026244;28;20061;-48
2022/06/09 07:01:19;;;;;;;1.23;1.13;;;;;;;17.86;100.00;95977.19;5023253;28;20523;-49
2022/06/09 07:03:48;;;;;;;1.27;1.17;;;;;;;17.72;100.00;95973.63;5023691;28;20468;-50
2022/06/09 07:06:17;;;;;;;1.20;1.10;;;;;;;17.64;100.00;95971.97;5039899;28;20460;-52
2022/06/09 07:08:46;;;;;;;3.08;1.20;;;;;;;17.82;100.00;95971.44;5025320;28;20073;-50
2022/06/09 07:11:14;;;;;;;1.20;1.10;;;;;;;18.02;100.00;95980.31;5023150;28;20077;-46
2022/06/09 07:13:43;;;;;;;2.38;1.20;;;;;;;17.91;100.00;95974.75;5024400;28;20596;-52
2022/06/09 07:16:14;;;;;;;1.63;1.27;;;;;;;17.96;100.00;95988.28;5022561;28;20084;-49
2022/06/09 07:19:03;;;;;;;2.38;1.30;;;;;;;17.96;100.00;95988.28;5022810;28;21431;-51
2022/06/09 07:21:31;;;;;;;3.90;1.52;;;;;;;18.05;100.00;95992.41;5026010;28;20073;-47
2022/06/09 07:24:00;;;;;;;2.05;1.30;;;;;;;17.93;100.00;95983.38;5025593;28;20092;-50
2022/06/09 07:26:29;;;;;;;2.45;1.42;;;;;;;18.39;100.00;95983.41;5023427;28;20065;-51
2022/06/09 07:28:57;;;;;;;1.52;1.33;;;;;;;18.46;100.00;95988.75;5029284;28;20073;-53
2022/06/09 07:31:27;;;;;;;2.38;1.50;;;;;;;18.27;100.00;95991.22;5018822;28;20087;-46
2022/06/09 07:33:56;;;;;;;1.98;1.50;;;;;;;18.12;100.00;95998.59;5019177;28;20078;-45
2022/06/09 07:36:25;;;;;;;2.58;1.40;;;;;;;18.12;100.00;95989.78;5023676;28;20072;-50
2022/06/09 07:38:54;;;;;;;3.35;1.35;;;;;;;18.14;100.00;95993.06;5027718;28;20069;-51
2022/06/09 07:41:22;;;;;;;1.58;1.40;;;;;;;18.43;100.00;95981.97;5026989;28;20069;-54
2022/06/09 07:44:01;;;;;;;3.50;1.50;;;;;;;18.18;100.00;95987.09;5023880;28;20617;-55
2022/06/09 07:46:31;;;;;;;1.90;1.48;;;;;;;18.12;100.00;95998.59;5023020;28;20092;-54
2022/06/09 07:49:00;;;;;;;;;;;;;;;18.50;100.00;95990.00;5021237;28;20084;-51
2022/06/09 07:51:29;;;;;;;2.75;1.42;;;;;;;18.66;100.00;95986.91;5020353;28;20455;-51
2022/06/09 07:53:58;;;;;;;3.50;1.60;;;;;;;18.61;100.00;95993.88;5019223;28;20713;-52
2022/06/09 07:56:27;;;;;;;1.92;1.52;;;;;;;19.01;100.00;95988.53;5040806;28;20506;-51
2022/06/09 07:58:56;;;;;;;1.60;1.40;;;;;;;19.01;100.00;95993.88;5023299;28;20065;-49
2022/06/09 08:01:24;;;;;;;1.85;1.35;;;;;;;19.31;100.00;95992.38;5026615;28;20057;-51
2022/06/09 08:03:55;;;;;;;3.35;1.50;;;;;;;19.20;100.00;95995.66;5039956;28;20413;-54
2022/06/09 08:06:23;;;;;;;2.65;1.50;;;;;;;19.59;100.00;95997.41;5024590;28;20069;-49
2022/06/09 08:08:56;;;;;;;2.65;1.70;;;;;;;20.06;100.00;95998.03;5019573;28;20073;-45
2022/06/09 08:11:26;;;;;;;1.63;1.38;;;;;;;19.88;100.00;95997.91;5023541;28;20117;-48
2022/06/09 08:13:55;;;;;;;2.00;1.60;;;;;;;20.42;100.00;96009.09;5017048;28;20449;-53
2022/06/09 08:16:24;;;;;;;2.77;1.70;;;;;;;20.29;100.00;95988.59;5018389;28;20085;-50
2022/06/09 08:18:55;;;;;;;3.55;1.90;;;;;;;20.19;100.00;96001.63;5021574;28;20895;-50
2022/06/09 08:21:23;;;;;;;;;;;;;;;19.77;100.00;96003.94;5019397;28;20077;-54
2022/06/09 08:24:09;;;;;;;2.55;1.70;;;;;;;19.42;100.00;96009.59;5024203;28;19997;-53
2022/06/09 08:26:39;;;;;;;4.93;1.65;;;;;;;19.69;100.00;96010.34;5017934;28;20115;-53
2022/06/09 08:29:07;;;;;;;5.25;1.80;;;;;;;19.38;100.00;96021.75;5020915;28;20064;-46
2022/06/09 08:31:36;;;;;;;3.58;2.00;;;;;;;19.12;100.00;96019.97;5020344;28;20080;-51
2022/06/09 08:34:06;;;;;;;3.13;1.98;;;;;;;18.69;100.00;96025.75;5021091;28;20076;-50
2022/06/09 08:36:35;;;;;;;4.60;1.90;;;;;;;18.65;100.00;96028.00;5019096;28;20079;-50
2022/06/09 08:39:04;;;;;;;3.40;1.70;;;;;;;18.26;100.00;96044.81;5021040;28;20041;-47
2022/06/09 08:41:39;;;;;;;4.45;1.55;;;;;;;17.78;100.00;96052.88;5019690;28;20088;-46
2022/06/09 08:44:22;;;;;;;2.47;1.30;;;;;;;17.23;100.00;96054.63;5020457;28;20066;-51
2022/06/09 08:46:56;;;;;;;2.72;1.40;;;;;;;16.75;100.00;96065.97;5025444;28;20064;-48
2022/06/09 08:49:32;;;;;;;2.72;1.65;;;;;;;16.88;100.00;96072.44;5024868;28;20081;-50
2022/06/09 08:52:05;;;;;;;2.17;1.90;;;;;;;16.95;100.00;96074.13;5021773;28;20091;-51
2022/06/09 08:54:36;;;;;;;3.28;1.90;;;;;;;16.85;100.00;96079.78;5020492;28;20638;-46
2022/06/09 08:57:11;;;;;;;4.15;2.15;;;;;;;16.97;100.00;96073.94;5025702;28;20073;-44
2022/06/09 08:59:40;;;;;;;4.72;2.63;;;;;;;17.04;100.00;96083.63;5025308;28;20550;-56
2022/06/09 09:02:21;;;;;;;3.70;2.40;;;;;;;17.30;100.00;96082.97;5024500;28;20068;-48
2022/06/09 09:05:07;;;;;;;4.15;2.42;;;;;;;17.50;100.00;96080.41;5021037;28;20065;-48
2022/06/09 09:07:37;;;;;;;4.93;2.70;;;;;;;17.94;100.00;96089.06;5018218;28;20073;-44
2022/06/09 09:10:15;;;;;;;7.40;2.35;;;;;;;17.75;100.00;96085.25;5020681;28;20069;-51
2022/06/09 09:12:49;;;;;;;3.95;2.58;;;;;;;17.91;100.00;96090.28;5025810;28;20061;-51
2022/06/09 09:15:23;;;;;;;4.45;2.97;;;;;;;18.31;100.00;96086.94;5023364;28;20088;-47
2022/06/09 09:17:55;;;;;;;4.57;2.53;;;;;;;18.64;100.00;96086.97;5012803;28;20076;-51
2022/06/09 09:20:27;;;;;;;5.30;2.70;;;;;;;18.63;100.00;96091.47;5015874;28;20065;-53
2022/06/09 09:23:03;;;;;;;3.85;2.67;;;;;;;18.76;100.00;96079.22;5021917;28;20192;-47
2022/06/09 09:25:43;;;;;;;4.32;2.50;;;;;;;19.07;100.00;96086.59;5020125;28;20077;-51
2022/06/09 09:28:16;;;;;;;2.22;2.03;;;;;;;18.93;100.00;96088.44;5022830;28;20077;-51
2022/06/09 09:30:54;;;;;;;4.28;2.30;;;;;;;18.37;100.00;96089.56;5024027;28;20517;-50
2022/06/09 09:33:22;;;;;;;3.55;2.10;;;;;;;18.85;100.00;96077.94;5021525;28;20065;-48
2022/06/09 09:35:57;;;;;;;4.07;2.30;;;;;;;19.45;100.00;96079.53;5019190;28;20088;-51
2022/06/09 09:38:34;;;;;;;7.55;2.28;;;;;;;19.41;100.00;96077.50;5025499;28;20069;-50
2022/06/09 09:41:03;;;;;;;5.95;2.28;;;;;;;19.18;100.00;96086.78;5017855;28;20062;-49
2022/06/09 09:43:37;;;;;;;5.93;2.20;;;;;;;19.28;100.00;96089.03;5024752;28;20088;-46
2022/06/09 09:46:19;;;;;;;5.13;2.13;;;;;;;19.29;100.00;96084.50;5023231;28;20089;-47
2022/06/09 09:48:49;;;;;;;3.55;2.20;;;;;;;19.39;100.00;96091.06;5022296;28;20750;-49
2022/06/09 09:51:32;;;;;;;5.55;2.40;;;;;;;19.47;100.00;96090.00;5012920;28;20076;-51
2022/06/09 09:54:09;;;;;;;5.47;2.10;;;;;;;19.40;100.00;96091.88;5018498;28;20582;-52
2022/06/09 09:56:38;;;;;;;4.60;1.83;;;;;;;19.24;100.00;96095.81;5024128;28;20623;-50
2022/06/09 09:59:24;;;;;;;4.68;2.42;;;;;;;19.96;100.00;96096.69;5017649;28;20293;-52
2022/06/09 10:08:39;;;;;;;4.30;2.15;;;;;;;20.54;100.00;96109.16;5019554;28;20065;-51
2022/06/09 10:14:07;;;;;;;4.78;1.90;;;;;;;20.19;100.00;96106.03;5023051;28;20053;-52
2022/06/09 10:16:55;;;;;;;4.43;1.88;;;;;;;19.71;100.00;96112.59;5024553;28;20069;-51
2022/06/09 10:19:41;;;;;;;5.63;2.20;;;;;;;19.17;100.00;96105.72;5025906;28;20065;-53
2022/06/09 10:22:19;;;;;;;5.25;2.35;;;;;;;19.94;100.00;96112.13;5022306;28;20093;-46
2022/06/09 10:25:18;;;;;;;3.50;1.85;;;;;;;20.37;100.00;96106.16;5018685;28;20092;-52
2022/06/09 10:27:54;;;;;;;3.25;1.77;;;;;;;19.72;100.00;96103.56;5024567;28;20469;-50
2022/06/09 10:30:28;;;;;;;5.05;2.00;;;;;;;20.62;100.00;96103.56;5026596;28;21806;-53
2022/06/09 10:33:03;;;;;;;2.65;1.70;;;;;;;21.01;100.00;96101.63;5023488;28;20065;-53
2022/06/09 10:35:38;;;;;;;5.80;1.90;;;;;;;21.22;100.00;96100.41;5018217;28;20069;-52
2022/06/09 10:38:13;;;;;;;4.55;1.50;;;;;;;21.10;100.00;96109.19;5018440;28;20092;-51
2022/06/09 10:40:50;;;;;;;5.32;1.52;;;;;;;20.74;100.00;96103.69;5018169;28;20065;-49
2022/06/09 10:43:22;;;;;;;3.45;1.67;;;;;;;20.85;100.00;96111.00;5020739;28;20089;-51
2022/06/09 10:45:53;;;;;;;5.30;1.77;;;;;;;20.79;100.00;96111.91;5024662;28;20056;-52
2022/06/09 10:57:07;;;;;;;3.75;1.75;;;;;;;20.60;100.00;96117.16;5022844;28;20061;-50
2022/06/09 10:59:39;;;;;;;4.82;2.17;;;;;;;20.48;100.00;96120.75;5019357;28;20091;-52
2022/06/09 11:02:12;;;;;;;3.95;1.80;;;;;;;20.03;100.00;96121.56;5019002;28;20076;-50
2022/06/09 11:04:41;;;;;;;2.67;1.67;;;;;;;19.86;100.00;96128.44;5021964;28;20091;-53
2022/06/09 11:07:35;;;;;;;1.67;1.55;;;;;;;19.23;100.00;96130.78;5020434;28;20092;-50
2022/06/09 11:10:16;;;;;;;6.53;1.60;;;;;;;18.77;100.00;96135.09;5005328;28;20318;-46
2022/06/09 11:12:51;;;;;;;3.72;1.38;;;;;;;18.32;100.00;96150.78;5014397;28;20149;-49
2022/06/09 11:15:27;;;;;;;1.95;1.38;;;;;;;18.18;100.00;96155.25;5019814;28;20093;-46
2022/06/09 11:18:08;;;;;;;1.85;1.08;;;;;;;18.01;100.00;96160.09;5018536;28;20142;-46
2022/06/09 11:20:48;;;;;;;3.13;1.50;;;;;;;18.13;100.00;96155.00;5021132;28;20069;-47
2022/06/09 11:23:27;;;;;;;2.33;1.27;;;;;;;18.35;100.00;96152.22;5019354;28;20084;-51
2022/06/09 11:25:58;;;;;;;2.95;1.48;;;;;;;18.22;100.00;96145.00;5019573;28;20107;-51
2022/06/09 11:28:38;;;;;;;2.30;1.17;;;;;;;18.24;100.00;96142.97;5024574;28;20068;-52
2022/06/09 11:31:42;;;;;;;1.98;1.35;;;;;;;18.72;100.00;96134.88;5018563;28;20080;-51
2022/06/09 11:34:37;;;;;;;2.72;1.60;;;;;;;18.93;100.00;96140.03;4993122;28;20519;-53
2022/06/09 11:37:14;;;;;;;3.85;1.73;;;;;;;19.09;100.00;96144.13;5014822;28;20491;-47
2022/06/09 11:39:57;;;;;;;5.18;1.63;;;;;;;19.36;100.00;96134.25;5022221;28;20072;-48
2022/06/09 11:42:37;;;;;;;4.43;1.80;;;;;;;19.52;100.00;96140.22;5021245;28;20089;-51
2022/06/09 11:45:21;;;;;;;2.92;1.80;;;;;;;19.70;100.00;96139.59;5022837;28;20064;-55
2022/06/09 11:47:51;;;;;;;4.32;2.00;;;;;;;20.12;100.00;96136.34;5028492;28;20073;-51
2022/06/09 11:50:23;;;;;;;4.18;2.17;;;;;;;20.45;100.00;96137.25;5023259;28;20543;-52
2022/06/09 11:52:52;;;;;;;5.57;2.75;;;;;;;20.39;100.00;96142.41;5026596;28;20065;-52
2022/06/09 11:55:57;;;;;;;4.07;2.35;;;;;;;20.95;100.00;96134.66;5019394;28;20078;-53
2022/06/09 11:58:44;;;;;;;5.07;2.30;;;;;;;21.29;100.00;96134.16;5006634;28;20495;-47
2022/06/09 12:01:43;;;;;;;3.60;2.08;;;;;;;21.35;100.00;96140.56;5002128;28;20077;-53
2022/06/09 12:04:22;;;;;;;5.35;2.40;;;;;;;21.33;100.00;96135.41;5025352;28;20330;-46
2022/06/09 12:07:01;;;;;;;5.38;2.47;;;;;;;21.12;100.00;96141.13;5020590;28;20095;-51
2022/06/09 12:09:37;;;;;;;4.70;2.30;;;;;;;20.82;100.00;96139.09;5018563;28;20069;-51
2022/06/09 12:12:26;;;;;;;4.43;2.13;;;;;;;20.94;100.00;96136.53;5022850;28;20060;-51
2022/06/09 12:15:19;;;;;;;3.63;2.10;;;;;;;21.43;100.00;96137.59;5021969;28;20080;-56
2022/06/09 12:18:06;;;;;;;4.07;1.85;;;;;;;20.97;100.00;96141.44;5024439;28;20061;-55
2022/06/09 12:20:39;;;;;;;5.40;2.03;;;;;;;21.48;100.00;96136.94;5019266;28;20072;-54